This is the latest recevied weather packets stored in our database for station/object KQ4OSL. If no packets are shown the sender has not sent any weather packets the latest 1 day(s).
| Time | Temp. | Humidity | Pressure | Rain* | Wind** | Luminosity | Snow |
|---|---|---|---|---|---|---|---|
| 1777990850 | 20.56° C | 60% | 1017.9 hPa | 0 mm | 0.45 m/s, 241° | 526 W/m² | - |
| 1777990547 | 20° C | 58% | 1017.8 hPa | 0 mm | 1.34 m/s, 249° | 514 W/m² | - |
| 1777990244 | 20.56° C | 61% | 1017.6 hPa | 0 mm | 0.45 m/s, 269° | 475 W/m² | - |
| 1777989941 | 20° C | 65% | 1017.5 hPa | 0 mm | 0.45 m/s, 270° | 476 W/m² | - |
| 1777989638 | 20° C | 62% | 1017.5 hPa | 0 mm | 0.89 m/s, 257° | 468 W/m² | - |
| 1777989334 | 20.56° C | 66% | 1017.5 hPa | 0 mm | 0.89 m/s, 264° | 454 W/m² | - |
| 1777989031 | 20° C | 70% | 1017.5 hPa | 0 mm | 0.45 m/s, 257° | 441 W/m² | - |
| 1777988727 | 20° C | 73% | 1017.5 hPa | 0 mm | 0.45 m/s, 254° | 426 W/m² | - |
| 1777988424 | 20° C | 71% | 1017.5 hPa | 0 mm | 0 m/s | 414 W/m² | - |
| 1777988121 | 18.89° C | 74% | 1017.3 hPa | 0 mm | 0 m/s | 399 W/m² | - |
| 1777987817 | 18.89° C | 73% | 1017.1 hPa | 0 mm | 0.45 m/s, 220° | 382 W/m² | - |
| 1777987514 | 18.33° C | 78% | 1017.3 hPa | 0 mm | 0.45 m/s, 288° | 366 W/m² | - |
| 1777987212 | 17.22° C | 80% | 1017.1 hPa | 0 mm | 0 m/s | 349 W/m² | - |
| 1777986908 | 16.67° C | 80% | 1017 hPa | 0 mm | 0.45 m/s, 314° | 335 W/m² | - |
| 1777986606 | 15.56° C | 82% | 1017.2 hPa | 0 mm | 0.45 m/s, 340° | 317 W/m² | - |
| 1777986303 | 15.56° C | 83% | 1017 hPa | 0 mm | 0.45 m/s, 315° | 304 W/m² | - |
| 1777986001 | 15.56° C | 83% | 1017.3 hPa | 0 mm | 0.45 m/s, 21° | 286 W/m² | - |
| 1777985698 | 15° C | 83% | 1017.1 hPa | 0 mm | 0.45 m/s, 300° | 265 W/m² | - |
| 1777985395 | 14.44° C | 83% | 1017.2 hPa | 0 mm | 0.45 m/s, 309° | 253 W/m² | - |
| 1777985091 | 14.44° C | 84% | 1017.1 hPa | 0 mm | 0.45 m/s, 304° | 236 W/m² | - |
| 1777984787 | 13.89° C | 84% | 1016.9 hPa | 0 mm | 0 m/s | 221 W/m² | - |
| 1777984484 | 13.89° C | 84% | 1016.8 hPa | 0 mm | 0 m/s | 204 W/m² | - |
| 1777984180 | 13.33° C | 85% | 1016.8 hPa | 0 mm | 0 m/s | 189 W/m² | - |
| 1777983878 | 12.22° C | 89% | 1016.8 hPa | 0 mm | 0 m/s | 174 W/m² | - |
| 1777983574 | 11.11° C | 92% | 1016.5 hPa | 0 mm | 0 m/s | 150 W/m² | - |
* Rain latest hour (hover to see other rain measurements)
** Current wind speed in m/s (hover to see current wind gust speed)